Time;durP1;ratioP1;P1;durP2;ratioP2;P2;SDS_P1;SDS_P2;PMS_P1;PMS_P2;Temp;Humidity;BMP_temperature;BMP_pressure;BME280_temperature;BME280_humidity;BME280_pressure;Samples;Min_cycle;Max_cycle;Signal;HPM_P1;HPM_P2
2023/09/23 00:01:26;;;;;;;4.57;3.33;;;;;;;;;;5076125;28;20008;-40
2023/09/23 00:03:53;;;;;;;5.45;3.60;;;;;;;;;;5071971;28;20032;-40
2023/09/23 00:06:22;;;;;;;4.40;3.70;;;;;;;;;;5077954;28;20082;-42
2023/09/23 00:08:49;;;;;;;3.63;3.22;;;;;;;;;;5075972;28;20083;-38
2023/09/23 00:11:18;;;;;;;5.57;3.83;;;;;;;;;;5071707;28;20020;-50
2023/09/23 00:13:45;;;;;;;7.22;4.03;;;;;;;;;;5066521;28;20040;-47
2023/09/23 00:16:15;;;;;;;6.75;4.38;;;;;;;;;;5080465;28;20212;-49
2023/09/23 00:18:44;;;;;;;5.03;3.90;;;;;;;;;;5066045;28;20028;-41
2023/09/23 00:21:12;;;;;;;5.65;4.05;;;;;;;;;;5069547;28;20021;-42
2023/09/23 00:23:40;;;;;;;5.78;4.70;;;;;;;;;;5064343;28;20028;-40
2023/09/23 00:26:11;;;;;;;6.03;5.22;;;;;;;;;;5076718;28;20331;-41
2023/09/23 00:28:38;;;;;;;5.72;4.45;;;;;;;;;;5084183;28;20079;-42
2023/09/23 00:31:12;;;;;;;7.05;4.40;;;;;;;;;;5072189;28;20039;-40
2023/09/23 00:33:39;;;;;;;5.93;4.55;;;;;;;;;;5064493;28;20021;-44
2023/09/23 00:36:07;;;;;;;5.45;4.50;;;;;;;;;;5076517;28;20309;-39
2023/09/23 00:38:34;;;;;;;14.00;5.00;;;;;;;;;;5084056;28;20063;-38
2023/09/23 00:41:00;;;;;;;11.38;4.82;;;;;;;;;;5081695;28;20019;-41
2023/09/23 00:43:27;;;;;;;12.77;4.72;;;;;;;;;;5081671;28;20039;-42
2023/09/23 00:45:58;;;;;;;22.35;6.45;;;;;;;;;;5081685;28;20044;-41
2023/09/23 00:48:27;;;;;;;15.13;5.55;;;;;;;;;;5081526;28;20043;-36
2023/09/23 00:50:55;;;;;;;17.88;5.50;;;;;;;;;;5072161;28;20142;-38
2023/09/23 00:53:22;;;;;;;12.25;5.90;;;;;;;;;;5075483;28;20033;-36
2023/09/23 00:55:54;;;;;;;45.13;8.65;;;;;;;;;;5072909;28;20031;-37
2023/09/23 00:58:22;;;;;;;97.40;13.18;;;;;;;;;;5064639;28;20329;-38
2023/09/23 01:00:55;;;;;;;42.05;8.52;;;;;;;;;;5068427;28;20032;-42
2023/09/23 01:03:22;;;;;;;21.40;5.50;;;;;;;;;;5079870;28;20025;-38
2023/09/23 01:06:00;;;;;;;23.48;6.00;;;;;;;;;;5072373;28;20240;-42
2023/09/23 01:08:29;;;;;;;42.55;7.70;;;;;;;;;;5075452;28;20216;-43
2023/09/23 01:10:56;;;;;;;77.45;11.40;;;;;;;;;;5063683;28;20028;-42
2023/09/23 01:13:24;;;;;;;67.00;10.32;;;;;;;;;;5064785;28;20209;-42
2023/09/23 01:15:52;;;;;;;49.85;9.10;;;;;;;;;;5067096;28;20033;-40
2023/09/23 01:18:18;;;;;;;60.50;9.93;;;;;;;;;;5071527;28;20028;-41
2023/09/23 01:20:49;;;;;;;102.18;14.70;;;;;;;;;;5072605;28;20329;-37
2023/09/23 01:23:16;;;;;;;95.28;12.52;;;;;;;;;;5064168;28;20213;-37
2023/09/23 01:25:43;;;;;;;88.88;11.18;;;;;;;;;;5073456;28;20035;-37
2023/09/23 01:28:13;;;;;;;45.67;7.68;;;;;;;;;;5065288;28;20025;-36
2023/09/23 01:30:46;;;;;;;104.90;14.13;;;;;;;;;;5063395;28;20033;-38
2023/09/23 01:33:16;;;;;;;29.95;6.45;;;;;;;;;;5063876;28;20186;-37
2023/09/23 01:35:43;;;;;;;23.15;5.72;;;;;;;;;;5063432;28;20093;-37
2023/09/23 01:38:11;;;;;;;31.75;6.50;;;;;;;;;;5070538;28;20025;-37
2023/09/23 01:40:43;;;;;;;53.58;9.85;;;;;;;;;;5067891;28;20028;-44
2023/09/23 01:43:09;;;;;;;40.65;7.93;;;;;;;;;;5063984;28;20446;-39
2023/09/23 01:45:36;;;;;;;59.00;10.15;;;;;;;;;;5063595;28;20419;-39
2023/09/23 01:48:03;;;;;;;28.08;6.97;;;;;;;;;;5063291;28;20039;-36
2023/09/23 01:50:30;;;;;;;11.23;4.55;;;;;;;;;;5063527;28;20053;-44
2023/09/23 01:52:59;;;;;;;11.25;4.70;;;;;;;;;;5063798;28;20276;-39
2023/09/23 01:55:26;;;;;;;8.45;3.80;;;;;;;;;;5063220;28;20029;-47
2023/09/23 01:57:53;;;;;;;6.78;4.20;;;;;;;;;;5063785;28;20083;-39
2023/09/23 02:00:25;;;;;;;5.60;4.30;;;;;;;;;;5065205;28;20060;-36
2023/09/23 02:02:53;;;;;;;10.25;4.32;;;;;;;;;;5067602;28;20024;-35
2023/09/23 02:05:24;;;;;;;59.60;8.70;;;;;;;;;;5067215;28;20104;-39
2023/09/23 02:07:50;;;;;;;28.15;5.63;;;;;;;;;;5067332;28;20197;-37
2023/09/23 02:10:21;;;;;;;23.20;4.38;;;;;;;;;;5069017;28;20079;-39
2023/09/23 02:12:48;;;;;;;13.88;4.20;;;;;;;;;;5078552;28;20331;-37
2023/09/23 02:15:15;;;;;;;9.68;3.35;;;;;;;;;;5086904;28;20368;-36
2023/09/23 02:17:48;;;;;;;5.60;3.65;;;;;;;;;;5087528;28;20032;-37
2023/09/23 02:20:22;;;;;;;5.22;3.58;;;;;;;;;;5087054;28;20028;-37
2023/09/23 02:22:53;;;;;;;10.88;3.83;;;;;;;;;;5087263;28;20020;-41
2023/09/23 02:25:19;;;;;;;8.38;3.35;;;;;;;;;;5086807;28;20044;-36
2023/09/23 02:27:46;;;;;;;7.97;3.22;;;;;;;;;;5086767;28;20108;-40
2023/09/23 02:30:14;;;;;;;9.18;4.18;;;;;;;;;;5086849;28;20274;-41
2023/09/23 02:32:41;;;;;;;34.45;6.43;;;;;;;;;;5086690;28;20040;-37
2023/09/23 02:35:11;;;;;;;47.58;6.50;;;;;;;;;;5086537;28;20040;-37
2023/09/23 02:37:39;;;;;;;33.05;5.43;;;;;;;;;;5073858;28;20059;-43
2023/09/23 02:40:06;;;;;;;44.35;6.82;;;;;;;;;;5072930;28;20037;-50
2023/09/23 02:42:32;;;;;;;63.97;7.60;;;;;;;;;;5073289;28;20096;-37
2023/09/23 02:45:02;;;;;;;96.57;10.98;;;;;;;;;;5082430;28;20025;-36
2023/09/23 02:47:30;;;;;;;82.22;9.88;;;;;;;;;;5081597;28;20034;-39
2023/09/23 02:49:56;;;;;;;60.80;8.15;;;;;;;;;;5077126;28;20032;-43
2023/09/23 02:52:23;;;;;;;41.33;6.05;;;;;;;;;;5086706;28;20040;-40
2023/09/23 02:54:54;;;;;;;41.28;5.22;;;;;;;;;;5086418;28;20036;-37
2023/09/23 02:57:21;;;;;;;37.03;5.90;;;;;;;;;;5086406;28;20030;-38
2023/09/23 02:59:56;;;;;;;38.85;5.53;;;;;;;;;;5086316;28;20020;-36
2023/09/23 03:02:27;;;;;;;38.92;5.53;;;;;;;;;;5086467;28;20082;-42
2023/09/23 03:04:58;;;;;;;32.35;4.80;;;;;;;;;;5086134;28;20343;-37
2023/09/23 03:07:33;;;;;;;43.95;6.07;;;;;;;;;;5086322;28;20036;-39
2023/09/23 03:10:01;;;;;;;29.60;4.90;;;;;;;;;;5085808;28;20056;-39
2023/09/23 03:12:40;;;;;;;24.33;4.40;;;;;;;;;;5085209;28;20103;-37
2023/09/23 03:15:14;;;;;;;20.20;4.03;;;;;;;;;;5082178;28;20036;-48
2023/09/23 03:17:50;;;;;;;15.88;3.15;;;;;;;;;;5074634;28;20037;-36
2023/09/23 03:20:26;;;;;;;12.55;2.90;;;;;;;;;;5065815;28;20096;-37
2023/09/23 03:22:53;;;;;;;10.88;2.40;;;;;;;;;;5066485;28;20373;-42
2023/09/23 03:25:21;;;;;;;8.73;2.80;;;;;;;;;;5065802;28;20033;-37
2023/09/23 03:27:48;;;;;;;9.50;3.10;;;;;;;;;;5065449;28;20044;-43
2023/09/23 03:30:16;;;;;;;6.30;2.58;;;;;;;;;;5065687;28;20096;-38
2023/09/23 03:32:42;;;;;;;6.32;2.33;;;;;;;;;;5066014;28;20032;-41
2023/09/23 03:35:14;;;;;;;5.38;2.25;;;;;;;;;;5065432;28;20033;-40
2023/09/23 03:37:41;;;;;;;6.57;2.35;;;;;;;;;;5070432;28;20070;-35
2023/09/23 03:40:07;;;;;;;7.60;2.50;;;;;;;;;;5076351;28;20328;-36
2023/09/23 03:42:34;;;;;;;6.20;2.10;;;;;;;;;;5074666;28;20024;-39
2023/09/23 03:45:03;;;;;;;5.68;2.13;;;;;;;;;;5085517;28;20052;-40
2023/09/23 03:47:31;;;;;;;4.57;2.10;;;;;;;;;;5084707;28;20220;-38
2023/09/23 03:49:58;;;;;;;5.50;2.20;;;;;;;;;;5075292;28;20074;-38
2023/09/23 03:52:25;;;;;;;4.70;1.88;;;;;;;;;;5065297;28;20048;-42
2023/09/23 03:54:52;;;;;;;5.45;2.20;;;;;;;;;;5066841;28;20095;-41
2023/09/23 03:57:19;;;;;;;8.18;2.25;;;;;;;;;;5074991;28;20024;-41
2023/09/23 03:59:48;;;;;;;4.47;2.03;;;;;;;;;;5065217;28;20084;-41
2023/09/23 04:02:14;;;;;;;4.45;2.10;;;;;;;;;;5065144;28;20032;-38
2023/09/23 04:04:41;;;;;;;2.45;1.90;;;;;;;;;;5064906;28;20071;-36
2023/09/23 04:07:08;;;;;;;4.07;2.00;;;;;;;;;;5065155;28;20048;-39
2023/09/23 04:09:34;;;;;;;2.78;1.90;;;;;;;;;;5064752;28;20057;-44
2023/09/23 04:12:01;;;;;;;2.75;1.92;;;;;;;;;;5064972;28;20029;-47
2023/09/23 04:14:28;;;;;;;5.05;2.08;;;;;;;;;;5070778;28;20047;-38
2023/09/23 04:16:55;;;;;;;5.25;2.10;;;;;;;;;;5069468;28;20031;-35
2023/09/23 04:19:22;;;;;;;2.60;1.90;;;;;;;;;;5064607;28;20041;-37
2023/09/23 04:21:48;;;;;;;3.42;2.10;;;;;;;;;;5064816;28;20040;-38
2023/09/23 04:24:16;;;;;;;4.88;2.08;;;;;;;;;;5064348;28;20396;-38
2023/09/23 04:26:43;;;;;;;3.15;1.88;;;;;;;;;;5064572;28;20052;-40
2023/09/23 04:29:09;;;;;;;8.73;2.45;;;;;;;;;;5064278;28;20087;-38
2023/09/23 04:31:36;;;;;;;6.35;2.33;;;;;;;;;;5064633;28;20202;-35
2023/09/23 04:34:03;;;;;;;3.05;2.33;;;;;;;;;;5064395;28;20029;-46
2023/09/23 04:36:29;;;;;;;6.93;2.30;;;;;;;;;;5068643;28;20024;-38
2023/09/23 04:38:56;;;;;;;5.78;2.20;;;;;;;;;;5084028;28;20044;-42
2023/09/23 04:41:23;;;;;;;4.35;2.10;;;;;;;;;;5090730;28;20320;-41
2023/09/23 04:43:49;;;;;;;5.47;2.55;;;;;;;;;;5066732;28;20032;-41
2023/09/23 04:46:17;;;;;;;3.72;2.33;;;;;;;;;;5073537;28;20051;-42
2023/09/23 04:48:43;;;;;;;3.05;2.30;;;;;;;;;;5064303;28;20092;-41
2023/09/23 04:51:10;;;;;;;4.13;1.90;;;;;;;;;;5080555;28;20365;-47
2023/09/23 04:53:36;;;;;;;3.03;2.10;;;;;;;;;;5097770;28;20040;-41
2023/09/23 04:56:08;;;;;;;3.33;2.33;;;;;;;;;;5104489;28;20032;-46
2023/09/23 04:58:35;;;;;;;4.73;2.10;;;;;;;;;;5104319;28;20035;-45
2023/09/23 05:01:01;;;;;;;6.05;2.55;;;;;;;;;;5104341;28;20258;-45
2023/09/23 05:03:29;;;;;;;5.30;2.47;;;;;;;;;;5104287;28;20231;-49
2023/09/23 05:05:56;;;;;;;4.45;2.60;;;;;;;;;;5104200;28;20027;-44
2023/09/23 05:08:22;;;;;;;4.15;2.47;;;;;;;;;;5104552;28;20040;-47
2023/09/23 05:10:49;;;;;;;3.83;2.25;;;;;;;;;;5104335;28;20064;-41
2023/09/23 05:13:17;;;;;;;4.60;1.95;;;;;;;;;;5104480;28;20023;-41
2023/09/23 05:15:44;;;;;;;4.50;1.75;;;;;;;;;;5104058;28;20043;-41
2023/09/23 05:18:11;;;;;;;3.95;1.67;;;;;;;;;;5104553;28;20031;-42
2023/09/23 05:20:38;;;;;;;3.08;1.75;;;;;;;;;;5103983;28;20031;-43
2023/09/23 05:23:05;;;;;;;3.72;1.67;;;;;;;;;;5104464;28;20024;-44
2023/09/23 05:25:32;;;;;;;2.72;1.63;;;;;;;;;;5104167;28;20361;-42
2023/09/23 05:27:59;;;;;;;3.50;1.60;;;;;;;;;;5104343;28;20024;-44
2023/09/23 05:30:29;;;;;;;5.65;1.70;;;;;;;;;;5104030;28;20036;-46
2023/09/23 05:32:55;;;;;;;8.13;1.63;;;;;;;;;;5103998;28;20028;-43
2023/09/23 05:35:22;;;;;;;6.05;1.58;;;;;;;;;;5105918;28;20023;-45
2023/09/23 05:37:50;;;;;;;6.50;1.88;;;;;;;;;;5108457;28;20026;-53
2023/09/23 05:40:27;;;;;;;2.88;1.70;;;;;;;;;;5108102;28;20036;-54
2023/09/23 05:42:55;;;;;;;2.83;1.70;;;;;;;;;;5107831;28;20016;-54
2023/09/23 05:45:25;;;;;;;3.78;1.60;;;;;;;;;;5108006;28;20036;-49
2023/09/23 05:47:52;;;;;;;3.60;1.60;;;;;;;;;;5106955;28;20134;-54
2023/09/23 05:50:20;;;;;;;4.43;1.80;;;;;;;;;;5105961;28;20024;-51
2023/09/23 05:52:47;;;;;;;1.85;1.65;;;;;;;;;;5096353;28;20028;-43
2023/09/23 05:55:14;;;;;;;13.18;2.45;;;;;;;;;;5087710;28;20024;-46
2023/09/23 05:57:41;;;;;;;18.20;4.25;;;;;;;;;;5086189;28;20016;-50
2023/09/23 06:00:08;;;;;;;8.73;2.70;;;;;;;;;;5085797;28;20325;-54
2023/09/23 06:02:35;;;;;;;7.75;2.40;;;;;;;;;;5086280;28;20065;-52
2023/09/23 06:05:02;;;;;;;13.18;3.03;;;;;;;;;;5087561;28;20028;-51
2023/09/23 06:07:29;;;;;;;4.35;2.53;;;;;;;;;;5087654;28;20032;-44
2023/09/23 06:09:58;;;;;;;6.93;2.55;;;;;;;;;;5087116;28;20056;-41
2023/09/23 06:12:29;;;;;;;5.05;2.33;;;;;;;;;;5087510;28;20039;-43
2023/09/23 06:14:59;;;;;;;6.78;2.28;;;;;;;;;;5087120;28;20037;-39
2023/09/23 06:17:32;;;;;;;3.58;2.42;;;;;;;;;;5087208;28;20012;-42
2023/09/23 06:19:59;;;;;;;4.82;2.08;;;;;;;;;;5087096;28;20035;-39
2023/09/23 06:22:27;;;;;;;5.00;2.25;;;;;;;;;;5087275;28;20016;-46
2023/09/23 06:24:54;;;;;;;3.63;2.28;;;;;;;;;;5086946;28;20108;-42
2023/09/23 06:27:21;;;;;;;4.38;2.40;;;;;;;;;;5087174;28;20077;-50
2023/09/23 06:29:48;;;;;;;3.78;1.98;;;;;;;;;;5087019;28;20031;-51
2023/09/23 06:32:14;;;;;;;5.65;2.65;;;;;;;;;;5087030;28;20182;-52
2023/09/23 06:34:41;;;;;;;5.50;2.35;;;;;;;;;;5086862;28;20028;-49
2023/09/23 06:37:07;;;;;;;2.80;1.73;;;;;;;;;;5086718;28;20020;-53
2023/09/23 06:39:34;;;;;;;5.25;2.08;;;;;;;;;;5086718;28;20091;-49
2023/09/23 06:42:01;;;;;;;6.07;2.00;;;;;;;;;;5086892;28;20023;-51
2023/09/23 06:44:28;;;;;;;3.40;1.90;;;;;;;;;;5086820;28;20126;-52
2023/09/23 06:46:54;;;;;;;3.20;2.30;;;;;;;;;;5086608;28;20028;-44
2023/09/23 06:49:21;;;;;;;3.95;1.90;;;;;;;;;;5086655;28;20031;-40
2023/09/23 06:51:49;;;;;;;5.05;2.00;;;;;;;;;;5086760;28;20020;-40
2023/09/23 06:54:15;;;;;;;3.28;2.08;;;;;;;;;;5086289;28;20032;-42
2023/09/23 06:56:42;;;;;;;4.45;2.08;;;;;;;;;;5086475;28;20027;-49
2023/09/23 06:59:09;;;;;;;5.90;1.83;;;;;;;;;;5086568;28;20047;-54
2023/09/23 07:01:36;;;;;;;5.13;1.90;;;;;;;;;;5086324;28;20032;-53
2023/09/23 07:04:04;;;;;;;2.88;1.90;;;;;;;;;;5085321;28;20016;-41
2023/09/23 07:06:31;;;;;;;2.72;1.80;;;;;;;;;;5086352;28;20231;-41
2023/09/23 07:08:57;;;;;;;2.75;2.10;;;;;;;;;;5085926;28;20055;-47
2023/09/23 07:11:24;;;;;;;4.93;1.92;;;;;;;;;;5086145;28;20331;-44
2023/09/23 07:13:51;;;;;;;2.55;1.80;;;;;;;;;;5086171;28;20031;-40
2023/09/23 07:16:17;;;;;;;5.57;2.20;;;;;;;;;;5085902;28;20036;-40
2023/09/23 07:18:47;;;;;;;3.50;2.08;;;;;;;;;;5086201;28;20028;-40
2023/09/23 07:21:14;;;;;;;6.35;2.03;;;;;;;;;;5086240;28;20023;-40
2023/09/23 07:23:40;;;;;;;2.15;1.63;;;;;;;;;;5085819;28;20273;-40
2023/09/23 07:26:07;;;;;;;3.47;2.00;;;;;;;;;;5085892;28;20020;-40
2023/09/23 07:28:34;;;;;;;6.55;1.80;;;;;;;;;;5085965;28;20091;-40
2023/09/23 07:31:01;;;;;;;5.53;1.92;;;;;;;;;;5085658;28;20032;-40
2023/09/23 07:33:28;;;;;;;4.10;2.10;;;;;;;;;;5085719;28;20025;-40
2023/09/23 07:35:54;;;;;;;6.82;1.70;;;;;;;;;;5085799;28;20069;-45
2023/09/23 07:38:21;;;;;;;3.80;1.90;;;;;;;;;;5085683;28;20025;-43
2023/09/23 07:40:49;;;;;;;3.85;2.45;;;;;;;;;;5085670;28;20088;-40
2023/09/23 07:43:15;;;;;;;5.20;2.08;;;;;;;;;;5086102;28;20016;-40
2023/09/23 07:45:42;;;;;;;4.72;1.77;;;;;;;;;;5085487;28;20100;-46
2023/09/23 07:48:09;;;;;;;7.82;1.90;;;;;;;;;;5085886;28;20021;-43
2023/09/23 07:50:36;;;;;;;4.10;1.95;;;;;;;;;;5085486;28;20054;-42
2023/09/23 07:53:02;;;;;;;5.25;1.90;;;;;;;;;;5085566;28;20032;-42
2023/09/23 07:55:30;;;;;;;6.18;1.83;;;;;;;;;;5085238;28;20403;-39
2023/09/23 07:57:56;;;;;;;5.95;1.83;;;;;;;;;;5085207;28;20024;-41
2023/09/23 08:00:24;;;;;;;15.32;2.60;;;;;;;;;;5085099;28;20091;-49
2023/09/23 08:02:51;;;;;;;22.20;3.55;;;;;;;;;;5085494;28;20021;-40
2023/09/23 08:05:18;;;;;;;22.48;4.05;;;;;;;;;;5085187;28;20024;-42
2023/09/23 08:07:45;;;;;;;31.02;4.63;;;;;;;;;;5085276;28;20036;-46
2023/09/23 08:10:11;;;;;;;41.85;6.03;;;;;;;;;;5084967;28;20166;-41
2023/09/23 08:12:38;;;;;;;41.42;5.95;;;;;;;;;;5085556;28;20055;-45
2023/09/23 08:15:08;;;;;;;49.90;7.47;;;;;;;;;;5084901;28;20044;-39
2023/09/23 08:17:34;;;;;;;54.03;7.78;;;;;;;;;;5085155;28;20016;-42
2023/09/23 08:20:07;;;;;;;57.75;7.85;;;;;;;;;;5084878;28;20032;-48
2023/09/23 08:22:36;;;;;;;58.00;6.97;;;;;;;;;;5084916;28;20031;-50
2023/09/23 08:25:03;;;;;;;44.38;6.55;;;;;;;;;;5084734;28;20024;-45
2023/09/23 08:27:30;;;;;;;41.60;6.40;;;;;;;;;;5085194;28;20399;-43
2023/09/23 08:29:56;;;;;;;45.65;7.40;;;;;;;;;;5084575;28;20107;-45
2023/09/23 08:32:23;;;;;;;78.93;9.30;;;;;;;;;;5084956;28;20043;-41
2023/09/23 08:34:50;;;;;;;50.13;6.53;;;;;;;;;;5084501;28;20032;-43
2023/09/23 08:37:16;;;;;;;26.35;4.53;;;;;;;;;;5084632;28;20017;-42
2023/09/23 08:39:43;;;;;;;16.52;3.45;;;;;;;;;;5084544;28;20024;-44
2023/09/23 08:42:10;;;;;;;16.40;3.13;;;;;;;;;;5084274;28;20031;-45
2023/09/23 08:44:36;;;;;;;21.02;3.50;;;;;;;;;;5084293;28;20032;-50
2023/09/23 08:47:04;;;;;;;15.27;3.38;;;;;;;;;;5077229;28;20025;-54
2023/09/23 08:49:31;;;;;;;12.82;2.60;;;;;;;;;;5073646;28;20056;-43
2023/09/23 08:51:58;;;;;;;9.23;2.47;;;;;;;;;;5064233;28;20067;-40
2023/09/23 08:54:27;;;;;;;10.40;2.28;;;;;;;;;;5064041;28;20033;-42
2023/09/23 08:56:54;;;;;;;6.22;1.80;;;;;;;;;;5064140;28;20031;-43
2023/09/23 08:59:21;;;;;;;8.82;2.45;;;;;;;;;;5064039;28;20247;-42
2023/09/23 09:01:48;;;;;;;9.40;2.35;;;;;;;;;;5064101;28;20127;-43
2023/09/23 09:04:15;;;;;;;10.68;1.98;;;;;;;;;;5064150;28;20033;-40
2023/09/23 09:06:51;;;;;;;5.63;2.10;;;;;;;;;;5063966;28;20028;-56
2023/09/23 09:09:18;;;;;;;4.80;1.98;;;;;;;;;;5062995;28;20045;-42
2023/09/23 09:11:49;;;;;;;7.57;1.95;;;;;;;;;;5063914;28;20220;-48
2023/09/23 09:14:17;;;;;;;10.27;2.22;;;;;;;;;;5063737;28;20325;-41
2023/09/23 09:16:45;;;;;;;7.07;2.50;;;;;;;;;;5063911;28;20037;-46
2023/09/23 09:19:12;;;;;;;9.85;2.70;;;;;;;;;;5079449;28;20244;-44
2023/09/23 09:21:39;;;;;;;8.20;3.00;;;;;;;;;;5064048;28;20021;-45
2023/09/23 09:24:06;;;;;;;11.07;2.72;;;;;;;;;;5063784;28;20040;-47
2023/09/23 09:26:33;;;;;;;7.25;2.42;;;;;;;;;;5069568;28;20024;-40
2023/09/23 09:28:59;;;;;;;6.82;2.22;;;;;;;;;;5083709;28;20027;-42
2023/09/23 09:31:32;;;;;;;11.93;2.15;;;;;;;;;;5070469;28;20037;-42
2023/09/23 09:34:03;;;;;;;11.40;2.35;;;;;;;;;;5061961;28;20029;-44
2023/09/23 09:36:30;;;;;;;5.05;1.88;;;;;;;;;;5061939;28;20044;-43
2023/09/23 09:38:57;;;;;;;4.00;1.83;;;;;;;;;;5061997;28;20079;-49
2023/09/23 09:41:56;;;;;;;8.10;2.08;;;;;;;;;;5061884;28;20013;-44
2023/09/23 09:44:27;;;;;;;8.25;1.90;;;;;;;;;;5029199;28;20102;-46
2023/09/23 09:46:55;;;;;;;4.53;1.70;;;;;;;;;;5062406;28;20040;-52
2023/09/23 09:49:25;;;;;;;5.50;1.95;;;;;;;;;;5063552;28;20025;-47
2023/09/23 09:51:53;;;;;;;6.57;1.67;;;;;;;;;;5063510;28;20033;-45
2023/09/23 09:54:25;;;;;;;7.05;1.60;;;;;;;;;;5063163;28;20059;-56
2023/09/23 09:56:55;;;;;;;4.18;1.55;;;;;;;;;;5063517;28;20370;-54
2023/09/23 09:59:23;;;;;;;7.30;1.75;;;;;;;;;;5063336;28;20043;-49
2023/09/23 10:01:53;;;;;;;4.32;1.70;;;;;;;;;;5069835;28;20016;-52
2023/09/23 10:04:20;;;;;;;4.38;1.58;;;;;;;;;;5083659;28;20099;-49
2023/09/23 10:06:53;;;;;;;4.70;1.50;;;;;;;;;;5083559;28;20024;-38
2023/09/23 10:09:27;;;;;;;6.05;1.40;;;;;;;;;;5083130;28;20052;-40
2023/09/23 10:11:54;;;;;;;4.00;1.35;;;;;;;;;;5083438;28;20051;-43
2023/09/23 10:14:22;;;;;;;4.38;1.40;;;;;;;;;;5083265;28;20091;-45
2023/09/23 10:16:52;;;;;;;5.20;1.45;;;;;;;;;;5083270;28;20047;-49
2023/09/23 10:19:29;;;;;;;2.42;1.40;;;;;;;;;;5083216;28;20092;-47
2023/09/23 10:22:11;;;;;;;5.57;1.63;;;;;;;;;;5086284;28;20043;-53
2023/09/23 10:24:38;;;;;;;4.43;1.45;;;;;;;;;;5086912;28;20131;-39
2023/09/23 10:27:09;;;;;;;5.45;1.60;;;;;;;;;;5087181;28;20339;-44
2023/09/23 10:29:45;;;;;;;7.28;2.10;;;;;;;;;;5086949;28;20091;-43
2023/09/23 10:32:15;;;;;;;5.28;1.50;;;;;;;;;;5086928;28;20024;-39
2023/09/23 10:34:49;;;;;;;5.25;1.70;;;;;;;;;;5086793;28;20033;-39
2023/09/23 10:37:32;;;;;;;4.72;1.50;;;;;;;;;;5086838;28;20062;-43
2023/09/23 10:40:14;;;;;;;4.63;1.67;;;;;;;;;;5087081;28;20350;-46
2023/09/23 10:42:41;;;;;;;6.32;2.90;;;;;;;;;;5086889;28;20032;-42
2023/09/23 10:45:09;;;;;;;4.22;3.45;;;;;;;;;;5098595;28;20031;-43
2023/09/23 10:47:36;;;;;;;5.15;3.83;;;;;;;;;;5103691;28;20087;-48
2023/09/23 10:50:06;;;;;;;10.30;3.40;;;;;;;;;;5102081;28;20070;-45
2023/09/23 10:52:34;;;;;;;9.45;5.25;;;;;;;;;;5102426;28;20024;-42
2023/09/23 10:55:00;;;;;;;6.78;3.22;;;;;;;;;;5106764;28;20039;-47
2023/09/23 10:57:27;;;;;;;12.57;3.63;;;;;;;;;;5106916;28;20369;-46
2023/09/23 10:59:54;;;;;;;5.30;2.50;;;;;;;;;;5106803;28;20096;-53
2023/09/23 11:02:22;;;;;;;17.63;3.63;;;;;;;;;;5101865;28;20057;-42
2023/09/23 11:04:50;;;;;;;12.52;3.20;;;;;;;;;;5086177;28;20321;-45
2023/09/23 11:07:17;;;;;;;21.58;3.90;;;;;;;;;;5086529;28;20044;-45
2023/09/23 11:09:45;;;;;;;8.65;2.65;;;;;;;;;;5086277;28;20064;-40
2023/09/23 11:12:18;;;;;;;11.43;2.60;;;;;;;;;;5086593;28;20035;-46
2023/09/23 11:14:49;;;;;;;6.50;2.35;;;;;;;;;;5084461;28;20249;-40
2023/09/23 11:17:26;;;;;;;7.88;2.40;;;;;;;;;;5084137;28;20091;-40
2023/09/23 11:19:56;;;;;;;6.95;2.30;;;;;;;;;;5084254;28;20051;-47
2023/09/23 11:22:26;;;;;;;4.55;2.30;;;;;;;;;;5084465;28;20232;-46
2023/09/23 11:24:54;;;;;;;4.28;2.30;;;;;;;;;;5084228;28;20104;-46
2023/09/23 11:27:21;;;;;;;4.45;2.25;;;;;;;;;;5084317;28;20052;-40
2023/09/23 11:29:48;;;;;;;6.22;2.17;;;;;;;;;;5085378;28;20028;-45
2023/09/23 11:32:15;;;;;;;5.15;1.85;;;;;;;;;;5085213;28;20040;-48
2023/09/23 11:34:42;;;;;;;4.35;2.15;;;;;;;;;;5085151;28;20194;-52
2023/09/23 11:37:09;;;;;;;3.33;1.90;;;;;;;;;;5085226;28;20092;-45
2023/09/23 11:39:36;;;;;;;6.13;2.10;;;;;;;;;;5064885;28;20029;-46
2023/09/23 11:42:03;;;;;;;5.28;1.90;;;;;;;;;;5065782;28;20017;-43
2023/09/23 11:44:29;;;;;;;5.53;1.80;;;;;;;;;;5071767;28;20112;-36
2023/09/23 11:46:56;;;;;;;7.03;1.95;;;;;;;;;;5105766;28;20050;-45
2023/09/23 11:49:25;;;;;;;7.78;2.22;;;;;;;;;;5105766;28;20024;-42
2023/09/23 11:51:53;;;;;;;12.65;2.58;;;;;;;;;;5105695;28;20034;-41
2023/09/23 11:54:19;;;;;;;7.40;2.30;;;;;;;;;;5105361;28;20104;-37
2023/09/23 11:56:46;;;;;;;3.08;2.30;;;;;;;;;;5105715;28;20360;-44
2023/09/23 11:59:14;;;;;;;5.68;2.80;;;;;;;;;;5105513;28;20039;-41
2023/09/23 12:01:41;;;;;;;4.57;2.63;;;;;;;;;;5105354;28;20028;-36
2023/09/23 12:04:08;;;;;;;9.45;2.35;;;;;;;;;;5105297;28;20091;-36
2023/09/23 12:06:36;;;;;;;4.53;2.22;;;;;;;;;;5105133;28;20059;-42
2023/09/23 12:09:03;;;;;;;5.95;2.78;;;;;;;;;;5103361;28;20055;-38
2023/09/23 12:11:30;;;;;;;5.82;2.45;;;;;;;;;;5103570;28;20102;-46
2023/09/23 12:13:57;;;;;;;5.78;2.70;;;;;;;;;;5103410;28;20091;-40
2023/09/23 12:16:23;;;;;;;5.45;2.80;;;;;;;;;;5103285;28;20032;-42
2023/09/23 12:18:50;;;;;;;6.63;2.25;;;;;;;;;;5103408;28;20200;-37
2023/09/23 12:21:17;;;;;;;7.03;3.00;;;;;;;;;;5103259;28;20051;-43
2023/09/23 12:23:43;;;;;;;5.75;3.88;;;;;;;;;;5104805;28;20032;-50
2023/09/23 12:26:10;;;;;;;7.55;3.70;;;;;;;;;;5104947;28;20015;-46
2023/09/23 12:28:37;;;;;;;4.78;3.00;;;;;;;;;;5094289;28;20056;-39
2023/09/23 12:31:04;;;;;;;6.05;3.03;;;;;;;;;;5064539;28;20032;-36
2023/09/23 12:33:31;;;;;;;4.82;3.33;;;;;;;;;;5065216;28;20021;-36
2023/09/23 12:35:57;;;;;;;3.58;2.38;;;;;;;;;;5064430;28;20329;-39
2023/09/23 12:38:24;;;;;;;3.90;2.42;;;;;;;;;;5064933;28;20036;-45
2023/09/23 12:40:51;;;;;;;5.55;2.47;;;;;;;;;;5064397;28;20021;-43
2023/09/23 12:43:17;;;;;;;3.05;2.17;;;;;;;;;;5064808;28;20092;-43
2023/09/23 12:45:44;;;;;;;2.80;1.90;;;;;;;;;;5064250;28;20099;-45
2023/09/23 12:48:11;;;;;;;11.90;2.75;;;;;;;;;;5063490;28;20122;-45
2023/09/23 12:50:38;;;;;;;9.18;2.10;;;;;;;;;;5062958;28;20041;-41
2023/09/23 12:53:05;;;;;;;7.68;2.17;;;;;;;;;;5062852;28;20305;-45
2023/09/23 12:55:31;;;;;;;9.75;2.40;;;;;;;;;;5062530;28;20029;-54
2023/09/23 12:57:58;;;;;;;6.35;1.95;;;;;;;;;;5062849;28;20032;-39
2023/09/23 13:00:25;;;;;;;5.95;1.77;;;;;;;;;;5062349;28;20071;-52
2023/09/23 13:02:52;;;;;;;9.02;1.58;;;;;;;;;;5072135;28;20079;-39
2023/09/23 13:05:18;;;;;;;7.63;1.73;;;;;;;;;;5076848;28;20028;-41
2023/09/23 13:07:45;;;;;;;2.58;1.23;;;;;;;;;;5095262;28;20038;-38
2023/09/23 13:10:12;;;;;;;7.35;1.30;;;;;;;;;;5104256;28;20055;-39
2023/09/23 13:12:39;;;;;;;2.60;1.10;;;;;;;;;;5104441;28;20081;-36
2023/09/23 13:15:06;;;;;;;3.90;1.17;;;;;;;;;;5103204;28;20028;-39
2023/09/23 13:17:33;;;;;;;1.83;0.98;;;;;;;;;;5088908;28;20092;-46
2023/09/23 13:20:01;;;;;;;4.60;1.05;;;;;;;;;;5093282;28;20099;-38
2023/09/23 13:22:28;;;;;;;4.35;1.20;;;;;;;;;;5102511;28;20094;-43
2023/09/23 13:24:55;;;;;;;2.47;0.98;;;;;;;;;;5102726;28;20260;-37
2023/09/23 13:27:21;;;;;;;4.22;1.13;;;;;;;;;;5102470;28;20078;-46
2023/09/23 13:29:48;;;;;;;1.40;1.00;;;;;;;;;;5102521;28;20085;-46
2023/09/23 13:32:17;;;;;;;2.83;0.85;;;;;;;;;;5094611;28;20241;-36
2023/09/23 13:34:44;;;;;;;1.85;0.80;;;;;;;;;;5067210;28;20051;-40
2023/09/23 13:37:10;;;;;;;3.00;1.00;;;;;;;;;;5066560;28;20046;-40
2023/09/23 13:39:37;;;;;;;1.88;0.80;;;;;;;;;;5082768;28;20324;-45
2023/09/23 13:42:05;;;;;;;4.43;0.95;;;;;;;;;;5081750;28;20024;-39
2023/09/23 13:44:32;;;;;;;3.85;0.80;;;;;;;;;;5083022;28;20103;-43
2023/09/23 13:46:59;;;;;;;6.80;0.95;;;;;;;;;;5083634;28;20024;-45
2023/09/23 13:49:27;;;;;;;8.38;1.83;;;;;;;;;;5081726;28;20036;-51
2023/09/23 13:51:53;;;;;;;4.90;1.20;;;;;;;;;;5083175;28;20070;-46
2023/09/23 13:54:20;;;;;;;6.90;1.08;;;;;;;;;;5081511;28;20024;-45
2023/09/23 13:56:47;;;;;;;4.28;1.27;;;;;;;;;;5084135;28;20444;-44
2023/09/23 13:59:13;;;;;;;23.13;3.67;;;;;;;;;;5085764;28;20039;-45
2023/09/23 14:01:40;;;;;;;16.65;2.47;;;;;;;;;;5085986;28;20228;-46
2023/09/23 14:04:07;;;;;;;80.70;19.90;;;;;;;;;;5085873;28;20052;-44
2023/09/23 14:06:33;;;;;;;16.10;3.95;;;;;;;;;;5085776;28;20028;-48
2023/09/23 14:09:00;;;;;;;8.40;2.60;;;;;;;;;;5085982;28;20047;-48
2023/09/23 14:11:27;;;;;;;7.53;2.88;;;;;;;;;;5084001;28;20028;-46
2023/09/23 14:13:53;;;;;;;9.43;2.85;;;;;;;;;;5085481;28;20074;-50
2023/09/23 14:16:21;;;;;;;42.88;6.78;;;;;;;;;;5086707;28;20079;-52
2023/09/23 14:18:48;;;;;;;11.43;3.03;;;;;;;;;;5086817;28;20032;-48
2023/09/23 14:21:14;;;;;;;9.73;2.70;;;;;;;;;;5086799;28;20025;-43
2023/09/23 14:23:41;;;;;;;8.43;4.07;;;;;;;;;;5083660;28;20035;-43
2023/09/23 14:26:08;;;;;;;10.27;2.95;;;;;;;;;;5086223;28;20044;-53
2023/09/23 14:28:34;;;;;;;8.65;3.08;;;;;;;;;;5079862;28;20082;-44
2023/09/23 14:31:01;;;;;;;4.60;1.73;;;;;;;;;;5080612;28;20172;-51
2023/09/23 14:33:27;;;;;;;4.65;2.10;;;;;;;;;;5086810;28;20058;-42
2023/09/23 14:35:54;;;;;;;7.55;2.20;;;;;;;;;;5086917;28;20043;-41
2023/09/23 14:38:21;;;;;;;15.75;3.25;;;;;;;;;;5087122;28;20017;-43
2023/09/23 14:40:47;;;;;;;16.67;4.68;;;;;;;;;;5086614;28;20075;-46
2023/09/23 14:43:14;;;;;;;9.25;4.05;;;;;;;;;;5087358;28;20028;-47